Latest Weather Observations for Shark Bay Airport

IDW60801

Issued at 7:04 pm WST Thursday 23 February 2017 (issued every 30 minutes, with the page automatically refreshed every 10 minutes)

About weather observations | Map of weather stations | Latest weather observations for WA | Other Formats
Station Details ID: 006105 Name: SHARK BAY AIRPORT Lat: -25.89 Lon: 113.58 Height: 33.8 m
Data from the previous 72 hours. | See also: Recent months at Shark Bay Airport
Date/Time
WST
Temp
°C
App
Temp
°C
Dew
Point
°C
Rel
Hum
%
Delta-T
°C
Wind Press
QNH
hPa
Press
MSL
hPa
Rain since
9am
mm
Dir  Spd
km/h
Gust
km/h
Spd
kts
Gust
kts
23/07:00pm 27.4 25.7 17.3 54 6.3 SSW 22 32 12 17 1013.6 1013.4 0.0
23/06:30pm 29.5 26.2 14.1 39 9.3 SSW 24 33 13 18 1013.2 1013.0 0.0
23/06:00pm 31.0 26.6 12.8 32 10.8 SW 28 41 15 22 1012.9 1012.7 0.0
23/05:30pm 32.3 27.9 13.0 31 11.6 SW 28 39 15 21 1012.6 1012.4 0.0
23/05:00pm 32.6 27.9 13.3 31 11.6 SW 30 37 16 20 1012.5 1012.3 0.0
23/04:30pm 33.2 28.4 11.7 27 12.7 SW 28 35 15 19 1012.6 1012.4 0.0
23/04:00pm 34.0 29.6 12.9 28 12.7 SW 28 35 15 19 1012.6 1012.4 0.0
23/03:30pm 35.6 30.3 6.8 17 15.9 SW 24 33 13 18 1012.5 1012.3 0.0
23/03:00pm 35.1 29.9 8.8 20 15.0 SW 26 35 14 19 1012.8 1012.6 0.0
23/02:30pm 36.0 31.2 8.7 19 15.6 SW 24 32 13 17 1013.0 1012.8 0.0
23/02:00pm 37.1 33.2 8.8 18 16.2 SSW 19 26 10 14 1013.2 1013.0 0.0
23/01:30pm 36.7 33.6 3.8 13 17.5 ENE 9 19 5 10 1013.5 1013.3 0.0
23/01:00pm 36.9 33.1 4.0 13 17.5 SE 13 19 7 10 1013.6 1013.4 0.0
23/12:30pm 35.2 31.9 4.7 15 16.3 ESE 11 17 6 9 1013.9 1013.7 0.0
23/12:00pm 34.1 30.8 6.4 18 15.1 E 13 19 7 10 1014.2 1014.0 0.0
23/11:30am 33.9 30.5 7.8 20 14.5 E 15 20 8 11 1014.5 1014.3 0.0
23/11:00am 32.6 29.3 8.1 22 13.6 E 15 24 8 13 1014.9 1014.7 0.0
23/10:30am 31.7 27.4 8.0 23 13.1 E 20 26 11 14 1015.1 1014.9 0.0
23/10:00am 30.7 26.9 9.0 26 12.1 E 19 26 10 14 1015.2 1015.0 0.0
23/09:30am 29.9 26.1 9.9 29 11.3 E 20 28 11 15 1015.3 1015.1 0.0
23/09:00am 28.6 24.7 9.3 30 10.7 ESE 20 32 11 17 1015.5 1015.3 0.0
23/08:30am 27.1 23.0 11.6 38 8.9 ESE 24 32 13 17 1015.5 1015.3 0.0
23/08:00am 25.3 24.4 15.9 56 5.7 ESE 15 20 8 11 1015.4 1015.2 0.0
23/07:30am 23.1 22.3 15.2 61 4.7 SE 13 17 7 9 1015.3 1015.1 0.0
23/07:00am 19.9 19.6 14.3 70 3.2 SE 9 13 5 7 1015.0 1014.8 0.0
23/06:30am 17.7 16.9 13.0 74 2.6 SSE 9 13 5 7 1014.9 1014.7 0.0
23/06:00am 17.9 16.8 13.2 74 2.6 SSE 11 13 6 7 1014.5 1014.3 0.0
23/05:30am 18.3 17.4 13.6 74 2.7 SE 11 15 6 8 1014.2 1014.0 0.0
23/05:00am 18.7 17.6 14.2 75 2.6 SSE 13 17 7 9 1014.1 1013.9 0.0
23/04:30am 19.0 18.0 14.7 76 2.5 SSE 13 17 7 9 1014.1 1013.9 0.0
23/04:00am 19.2 18.5 15.3 78 2.3 SSE 13 19 7 10 1014.1 1013.9 0.0
23/03:30am 19.4 18.9 15.9 80 2.1 SSE 13 15 7 8 1014.2 1014.0 0.0
23/03:00am 19.5 19.3 16.7 84 1.7 SSE 13 17 7 9 1014.2 1014.0 0.0
23/02:30am 19.4 20.0 16.8 85 1.6 SSW 9 11 5 6 1014.3 1014.1 0.0
23/02:00am 20.1 20.9 17.3 84 1.7 S 9 13 5 7 1014.4 1014.2 0.0
23/01:30am 20.7 20.5 17.7 83 1.9 SSW 15 19 8 10 1014.6 1014.4 0.0
23/01:00am 21.2 20.7 17.8 81 2.1 SSW 17 20 9 11 1014.9 1014.7 0.0
23/12:30am 21.4 21.1 18.2 82 2.0 S 17 22 9 12 1015.1 1014.9 0.0
23/12:00am 21.5 20.5 17.9 80 2.2 S 20 28 11 15 1015.3 1015.1 0.0
 
Date/Time
WST
Temp
°C
App
Temp
°C
Dew
Point
°C
Rel
Hum
%
Delta-T
°C
Wind Press
QNH
hPa
Press
MSL
hPa
Rain since
9am
mm
Dir  Spd
km/h
Gust
km/h
Spd
kts
Gust
kts
22/11:30pm 21.6 20.1 17.6 78 2.5 S 22 26 12 14 1015.5 1015.3 0.0
22/11:00pm 21.8 20.1 17.2 75 2.8 S 22 30 12 16 1015.7 1015.5 0.0
22/10:30pm 21.9 20.2 17.1 74 2.9 SSW 22 30 12 16 1015.8 1015.6 0.0
22/10:00pm 21.9 19.7 16.8 73 3.1 S 24 33 13 18 1015.9 1015.7 0.0
22/09:30pm 22.0 19.7 16.7 72 3.2 S 24 33 13 18 1015.8 1015.6 0.0
22/09:00pm 22.2 20.4 16.9 72 3.2 S 22 30 12 16 1015.6 1015.4 0.0
22/08:30pm 22.4 20.0 16.4 69 3.6 SSW 24 33 13 18 1015.4 1015.2 0.0
22/08:00pm 22.6 20.5 16.2 67 3.9 SSW 22 30 12 16 1015.1 1014.9 0.0
22/07:30pm 23.1 20.5 15.9 64 4.4 SSW 24 32 13 17 1014.9 1014.7 0.0
22/07:00pm 23.9 20.9 15.9 61 4.8 SSW 26 33 14 18 1014.6 1014.4 0.0
22/06:30pm 25.0 20.7 14.5 52 6.3 SSW 30 37 16 20 1014.3 1014.1 0.0
22/06:00pm 26.1 21.9 13.6 46 7.4 SW 28 37 15 20 1014.1 1013.9 0.0
22/05:30pm 28.0 24.9 14.6 44 8.1 SW 24 32 13 17 1014.0 1013.8 0.0
22/05:00pm 28.4 24.2 11.0 34 9.9 SW 24 33 13 18 1014.1 1013.9 0.0
22/04:30pm 29.0 24.5 10.2 31 10.6 SW 24 32 13 17 1014.1 1013.9 0.0
22/04:00pm 29.5 25.0 11.5 33 10.4 SW 26 33 14 18 1014.0 1013.8 0.0
22/03:30pm 30.1 28.3 12.1 33 10.5 SSE 13 24 7 13 1014.3 1014.1 0.0
22/03:00pm 30.7 27.5 8.4 25 12.3 SE 15 28 8 15 1014.4 1014.2 0.0
22/02:30pm 30.7 28.0 9.0 26 12.1 ESE 13 22 7 12 1014.6 1014.4 0.0
22/02:00pm 30.7 27.3 9.0 26 12.1 ESE 17 24 9 13 1014.9 1014.7 0.0
22/01:30pm 29.7 26.1 9.8 29 11.2 SE 19 28 10 15 1015.3 1015.1 0.0
22/01:00pm 28.8 25.2 10.0 31 10.6 SE 19 33 10 18 1015.6 1015.4 0.0
22/12:30pm 28.2 25.1 10.4 33 10.1 SE 17 30 9 16 1016.0 1015.8 0.0
22/12:00pm 27.5 23.7 11.1 36 9.3 SE 22 30 12 16 1016.3 1016.1 0.0
22/11:30am 27.0 23.8 11.1 37 9.0 SE 19 30 10 16 1016.5 1016.3 0.0
22/11:00am 25.6 21.9 11.4 41 8.0 SE 22 32 12 17 1016.8 1016.6 0.0
22/10:30am 24.9 20.8 11.5 43 7.6 SE 24 33 13 18 1017.1 1016.9 0.0
22/10:00am 24.0 20.4 11.7 46 6.9 SE 22 35 12 19 1017.2 1017.0 0.0
22/09:30am 23.2 19.3 12.2 50 6.3 SE 24 33 13 18 1017.3 1017.1 0.0
22/09:00am 21.6 17.5 11.6 53 5.6 SE 24 33 13 18 1017.5 1017.3 0.0
22/08:30am 20.4 15.4 11.1 55 5.1 SE 28 35 15 19 1017.3 1017.1 0.0
22/08:00am 19.9 15.7 11.1 57 4.8 SE 24 33 13 18 1017.1 1016.9 0.0
22/07:30am 18.8 14.5 10.9 60 4.3 SSE 24 35 13 19 1017.0 1016.8 0.0
22/07:00am 17.5 13.9 10.6 64 3.7 SSE 20 28 11 15 1016.7 1016.5 0.0
22/06:30am 16.6 13.2 10.5 67 3.2 SSE 19 24 10 13 1016.4 1016.2 0.0
22/06:00am 16.7 13.3 10.5 67 3.3 SSE 19 30 10 16 1016.2 1016.0 0.0
22/05:30am 17.0 13.0 10.6 66 3.4 SSE 22 32 12 17 1015.9 1015.7 0.0
22/05:00am 17.4 13.6 11.0 66 3.4 SSE 22 33 12 18 1015.8 1015.6 0.0
22/04:30am 17.7 14.4 11.5 67 3.4 SSE 20 33 11 18 1015.8 1015.6 0.0
22/04:00am 18.0 14.9 12.2 69 3.2 SSE 20 28 11 15 1015.5 1015.3 0.0
22/03:30am 18.3 15.4 12.3 68 3.3 SSE 19 26 10 14 1015.3 1015.1 0.0
22/03:00am 18.5 15.5 12.5 68 3.3 SSE 20 28 11 15 1015.1 1014.9 0.0
22/02:30am 18.8 15.4 12.5 67 3.5 SSE 22 32 12 17 1015.0 1014.8 0.0
22/02:00am 19.1 15.4 12.8 67 3.5 SSE 24 39 13 21 1015.1 1014.9 0.0
22/01:30am 19.4 15.8 13.1 67 3.6 SSE 24 35 13 19 1015.4 1015.2 0.0
22/01:00am 19.6 16.1 13.3 67 3.6 SSE 24 35 13 19 1015.7 1015.5 0.0
22/12:30am 19.9 16.5 13.8 68 3.5 SSE 24 35 13 19 1015.6 1015.4 0.0
22/12:00am 20.3 17.1 14.2 68 3.5 SSE 24 39 13 21 1015.6 1015.4 0.0
 
Date/Time
WST
Temp
°C
App
Temp
°C
Dew
Point
°C
Rel
Hum
%
Delta-T
°C
Wind Press
QNH
hPa
Press
MSL
hPa
Rain since
9am
mm
Dir  Spd
km/h
Gust
km/h
Spd
kts
Gust
kts
21/11:30pm 20.8 17.8 14.9 69 3.5 SSE 24 39 13 21 1015.8 1015.6 0.0
21/11:00pm 21.1 17.7 14.7 67 3.8 SSE 26 41 14 22 1015.7 1015.5 0.0
21/10:47pm 21.3 17.5 14.7 66 3.9 SSE 28 46 15 25 1015.7 1015.5 0.0
21/10:30pm 21.4 17.3 15.0 67 3.8 S 30 43 16 23 1015.9 1015.7 0.0
21/10:00pm 21.4 17.7 15.0 67 3.8 S 28 41 15 22 1015.7 1015.5 0.0
21/09:33pm 21.5 18.0 15.6 69 3.5 S 28 46 15 25 1015.6 1015.4 0.0
21/09:30pm 21.5 17.6 15.6 69 3.5 S 30 46 16 25 1015.6 1015.4 0.0
21/09:24pm 21.6 18.2 15.9 70 3.4 S 28 46 15 25 1015.6 1015.4 0.0
21/09:00pm 21.6 17.8 15.7 69 3.5 S 30 43 16 23 1015.4 1015.2 0.0
21/08:51pm 21.6 17.7 15.4 68 3.7 S 30 48 16 26 1015.3 1015.1 0.0
21/08:30pm 21.7 17.7 15.3 67 3.8 S 30 41 16 22 1015.2 1015.0 0.0
21/08:01pm 21.9 17.4 15.0 65 4.1 S 32 50 17 27 1014.9 1014.7 0.0
21/08:00pm 21.9 17.8 15.0 65 4.1 S 30 44 16 24 1014.9 1014.7 0.0
21/07:30pm 22.2 17.8 15.1 64 4.2 S 32 44 17 24 1014.6 1014.4 0.0
21/07:13pm 22.4 17.9 15.0 63 4.4 S 32 52 17 28 1014.4 1014.2 0.0
21/07:00pm 22.6 18.1 15.0 62 4.5 S 32 46 17 25 1014.2 1014.0 0.0
21/06:30pm 23.4 18.8 15.2 60 4.9 S 33 48 18 26 1013.8 1013.6 0.0
21/06:05pm 24.0 19.1 14.4 55 5.7 SSW 33 52 18 28 1013.6 1013.4 0.0
21/06:00pm 24.2 19.4 14.6 55 5.7 SSW 33 46 18 25 1013.5 1013.3 0.0
21/05:36pm 24.5 19.2 14.3 53 6.0 S 35 54 19 29 1013.4 1013.2 0.0
21/05:30pm 24.6 19.0 14.4 53 6.1 SSW 37 50 20 27 1013.4 1013.2 0.0
21/05:00pm 25.2 19.8 14.0 49 6.6 S 35 50 19 27 1013.2 1013.0 0.0
21/04:30pm 26.0 20.1 13.5 46 7.4 S 37 48 20 26 1013.2 1013.0 0.0
21/04:15pm 26.3 21.3 13.4 45 7.6 S 32 50 17 27 1013.2 1013.0 0.0
21/04:00pm 26.9 21.2 12.9 42 8.2 SSW 35 46 19 25 1013.2 1013.0 0.0
21/03:30pm 27.0 21.8 13.4 43 8.0 SSW 33 46 18 25 1013.3 1013.1 0.0
21/03:00pm 27.1 21.4 13.1 42 8.2 SSW 35 46 19 25 1013.4 1013.2 0.0
21/02:30pm 27.3 22.2 13.6 43 8.1 S 33 43 18 23 1013.7 1013.5 0.0
21/02:00pm 27.5 22.2 14.2 44 8.0 SSW 35 48 19 26 1013.7 1013.5 0.0
21/01:30pm 27.5 22.7 14.5 45 7.8 SSW 33 48 18 26 1013.8 1013.6 0.0
21/01:04pm 27.9 23.0 13.8 42 8.4 S 32 50 17 27 1014.0 1013.8 0.0
21/01:00pm 27.7 22.7 13.3 41 8.5 S 32 46 17 25 1014.1 1013.9 0.0
21/12:30pm 27.6 23.9 13.9 43 8.2 S 26 35 14 19 1014.3 1014.1 0.0
21/12:00pm 26.9 22.3 15.0 48 7.2 S 33 46 18 25 1014.6 1014.4 0.0
21/11:41am 26.7 22.2 14.8 48 7.2 S 32 50 17 27 1014.7 1014.5 0.0
21/11:30am 26.6 21.7 14.4 47 7.3 S 33 44 18 24 1014.8 1014.6 0.0
21/11:19am 26.2 21.9 14.3 48 7.1 S 30 48 16 26 1014.8 1014.6 0.0
21/11:00am 26.0 21.0 14.1 47 7.1 S 33 46 18 25 1015.1 1014.9 0.0
21/10:30am 25.7 21.8 15.4 53 6.2 S 30 43 16 23 1015.1 1014.9 0.0
21/10:00am 25.7 21.5 15.7 54 6.1 S 32 48 17 26 1015.2 1015.0 0.0
21/09:40am 25.4 21.7 16.0 56 5.7 S 30 48 16 26 1015.1 1014.9 0.0
21/09:30am 25.3 21.2 15.9 56 5.7 S 32 43 17 23 1015.1 1014.9 0.0
21/09:00am 24.5 20.4 16.5 61 4.9 S 33 43 18 23 1015.0 1014.8 0.0
21/08:30am 24.1 20.8 16.9 64 4.4 SSE 30 48 16 26 1014.7 1014.5 0.0
21/08:29am 24.0 20.6 16.8 64 4.4 SSE 30 48 16 26 1014.7 1014.5 0.0
21/08:00am 23.8 19.8 16.3 63 4.6 SSE 32 41 17 22 1014.4 1014.2 0.0
21/07:30am 23.3 21.1 16.8 67 4.0 SSE 24 35 13 19 1014.1 1013.9 0.0
21/07:00am 22.5 21.3 17.4 73 3.2 SSE 20 26 11 14 1013.6 1013.4 0.0
21/06:30am 21.7 20.5 17.1 75 2.8 SSE 19 30 10 16 1013.2 1013.0 0.0
21/06:00am 21.7 20.5 17.1 75 2.8 SSE 19 26 10 14 1013.0 1012.8 0.0
21/05:30am 21.8 20.7 17.4 76 2.7 S 19 26 10 14 1012.6 1012.4 0.0
21/05:00am 22.0 20.0 17.4 75 2.8 S 24 33 13 18 1012.4 1012.2 0.0
21/04:30am 22.2 19.9 17.6 75 2.8 S 26 39 14 21 1012.2 1012.0 0.0
21/04:00am 22.4 20.7 18.0 76 2.7 S 24 39 13 21 1012.1 1011.9 0.0
21/03:30am 22.6 20.9 18.2 76 2.8 S 24 33 13 18 1012.0 1011.8 0.0
21/03:00am 22.7 20.4 18.5 77 2.6 S 28 39 15 21 1012.0 1011.8 0.0
21/02:30am 22.9 20.2 18.4 76 2.8 S 30 41 16 22 1011.9 1011.7 0.0
21/02:00am 23.0 20.8 18.7 77 2.7 S 28 39 15 21 1011.8 1011.6 0.0
21/01:30am 23.0 21.4 19.2 79 2.4 S 26 41 14 22 1012.1 1011.9 0.0
21/01:00am 23.1 22.9 19.7 81 2.2 S 20 32 11 17 1012.0 1011.8 0.0
21/12:30am 23.2 22.5 19.6 80 2.3 S 22 30 12 16 1012.1 1011.9 0.0
21/12:00am 23.4 22.3 19.5 79 2.5 S 24 35 13 19 1012.3 1012.1 0.0
 
Date/Time
WST
Temp
°C
App
Temp
°C
Dew
Point
°C
Rel
Hum
%
Delta-T
°C
Wind Press
QNH
hPa
Press
MSL
hPa
Rain since
9am
mm
Dir  Spd
km/h
Gust
km/h
Spd
kts
Gust
kts
20/11:30pm 23.7 22.8 19.8 79 2.5 S 24 32 13 17 1012.1 1011.9 0.0
20/11:00pm 23.9 22.5 19.6 77 2.8 SSW 26 33 14 18 1012.3 1012.1 0.0
20/10:30pm 24.0 24.0 20.1 79 2.5 SSW 20 35 11 19 1012.3 1012.1 0.0
20/10:00pm 24.3 24.4 20.4 79 2.5 S 20 33 11 18 1012.2 1012.0 0.0
20/09:30pm 24.4 24.1 20.3 78 2.7 S 22 32 12 17 1012.2 1012.0 0.0
20/09:00pm 24.4 23.8 20.5 79 2.5 S 24 32 13 17 1011.9 1011.7 0.0
20/08:30pm 24.4 24.1 20.3 78 2.7 S 22 32 12 17 1012.0 1011.8 0.0
20/08:00pm 24.5 24.1 20.2 77 2.8 S 22 32 12 17 1011.9 1011.7 0.0
20/07:30pm 24.8 24.5 20.3 76 2.9 S 22 30 12 16 1011.6 1011.4 0.0

Other Formats:

Comma delimited format used in spreadsheet applications
http://www.bom.gov.au/fwo/IDW60801/IDW60801.95402.axf

JavaScript Object Notation format (JSON) in row-major order
http://www.bom.gov.au/fwo/IDW60801/IDW60801.95402.json